Time;durP1;ratioP1;P1;durP2;ratioP2;P2;SDS_P1;SDS_P2;PMS_P1;PMS_P2;Temp;Humidity;BMP_temperature;BMP_pressure;BME280_temperature;BME280_humidity;BME280_pressure;Samples;Min_cycle;Max_cycle;Signal;HPM_P1;HPM_P2
2021/12/18 00:01:58;;;;;;;6.50;4.60;;;;;;;7.57;100.00;104159.94;10544825;28;20085;-73
2021/12/18 00:06:59;;;;;;;9.35;5.90;;;;;;;7.55;100.00;104153.78;10544585;28;20039;-74
2021/12/18 00:12:00;;;;;;;7.85;6.38;;;;;;;7.55;100.00;104159.16;10546469;28;20056;-74
2021/12/18 00:17:02;;;;;;;8.10;5.75;;;;;;;7.55;100.00;104153.78;10528414;28;20056;-74
2021/12/18 00:22:02;;;;;;;8.27;6.13;;;;;;;7.53;100.00;104144.94;10544234;28;20047;-74
2021/12/18 00:27:03;;;;;;;9.95;7.60;;;;;;;7.47;100.00;104145.31;10545165;28;20063;-73
2021/12/18 00:32:04;;;;;;;6.93;5.55;;;;;;;7.38;100.00;104144.06;10543817;28;20036;-73
2021/12/18 00:37:05;;;;;;;9.88;4.78;;;;;;;7.29;100.00;104138.41;10545023;28;20033;-73
2021/12/18 00:42:20;;;;;;;5.43;4.63;;;;;;;7.29;100.00;104141.09;10544974;28;20058;-73
2021/12/18 00:47:21;;;;;;;5.00;4.50;;;;;;;7.37;100.00;104138.75;10530710;28;20036;-73
2021/12/18 00:52:22;;;;;;;4.53;4.13;;;;;;;7.38;100.00;104133.28;10548078;28;20119;-74
2021/12/18 00:57:23;;;;;;;5.25;4.43;;;;;;;7.44;100.00;104127.50;10543468;28;20036;-73
2021/12/18 01:02:23;;;;;;;6.13;5.25;;;;;;;7.43;100.00;104122.19;10541892;28;20035;-73
2021/12/18 01:07:24;;;;;;;6.07;5.07;;;;;;;7.44;100.00;104118.56;10507936;28;20089;-73
2021/12/18 01:12:33;;;;;;;9.18;6.70;;;;;;;7.44;100.00;104116.72;10541556;28;20028;-73
2021/12/18 01:22:53;;;;;;;6.78;6.18;;;;;;;7.35;100.00;104127.22;10542378;28;20388;-73
2021/12/18 01:27:53;;;;;;;7.18;5.80;;;;;;;7.40;100.00;104128.66;10523862;28;20067;-73
2021/12/18 01:32:55;;;;;;;3.75;3.40;;;;;;;7.35;100.00;104138.00;10523780;28;20383;-73
2021/12/18 01:37:55;;;;;;;5.13;3.63;;;;;;;7.37;100.00;104138.75;10524840;28;20042;-71
2021/12/18 01:53:35;;;;;;;3.28;2.40;;;;;;;7.32;100.00;104144.44;10520226;28;20044;-73
2021/12/18 01:58:36;;;;;;;2.95;2.63;;;;;;;7.32;100.00;104143.59;10541355;28;20390;-73
2021/12/18 02:03:36;;;;;;;6.10;2.28;;;;;;;7.34;100.00;104147.03;10540710;28;20031;-73
2021/12/18 02:08:39;;;;;;;3.42;3.05;;;;;;;7.17;100.00;104130.09;10540874;28;20072;-72
2021/12/18 02:24:38;;;;;;;3.60;3.30;;;;;;;7.34;100.00;104118.28;10453445;28;20087;-72
2021/12/18 02:29:40;;;;;;;4.93;3.70;;;;;;;7.36;100.00;104126.25;10502559;28;20044;-73
2021/12/18 02:34:41;;;;;;;5.65;5.03;;;;;;;7.44;100.00;104118.56;10539416;28;20028;-73
2021/12/18 02:40:46;;;;;;;5.20;4.40;;;;;;;7.50;100.00;104111.88;10538887;28;20028;-73
2021/12/18 02:45:07;;;;;;;6.20;3.88;;;;;;;7.58;100.00;104109.56;10539221;28;20043;-73
2021/12/18 02:50:07;;;;;;;6.10;4.50;;;;;;;7.55;100.00;104104.38;10539354;28;20036;-73
2021/12/18 02:55:08;;;;;;;5.07;3.90;;;;;;;7.57;100.00;104102.44;10538122;28;20028;-76
2021/12/18 03:00:09;;;;;;;4.97;3.70;;;;;;;7.60;100.00;104096.88;10539523;28;20119;-77
2021/12/18 03:05:13;;;;;;;4.60;4.10;;;;;;;7.62;100.00;104093.06;10539209;28;20060;-76
2021/12/18 03:26:12;;;;;;;5.85;5.15;;;;;;;7.58;100.00;104094.25;10538679;28;20032;-75
2021/12/18 03:31:13;;;;;;;5.75;4.75;;;;;;;7.55;100.00;104094.44;10538880;28;20495;-76
2021/12/18 03:36:13;;;;;;;4.97;4.10;;;;;;;7.47;100.00;104094.09;10545506;28;20059;-76
2021/12/18 03:41:14;;;;;;;4.82;4.07;;;;;;;7.38;100.00;104091.97;10546095;28;20028;-77
2021/12/18 03:46:14;;;;;;;7.78;4.45;;;;;;;7.36;100.00;104088.50;10545443;28;20119;-76
2021/12/18 03:51:15;;;;;;;6.13;5.13;;;;;;;7.33;100.00;104076.09;10547333;28;20114;-76
2021/12/18 03:56:15;;;;;;;5.28;4.78;;;;;;;7.22;100.00;104082.16;10544670;28;20036;-76
2021/12/18 04:01:15;;;;;;;5.32;4.03;;;;;;;7.15;100.00;104079.97;10546751;28;20079;-75
2021/12/18 04:06:16;;;;;;;8.75;6.40;;;;;;;7.05;100.00;104076.09;10545242;28;20039;-74
2021/12/18 04:11:17;;;;;;;6.80;5.13;;;;;;;7.06;100.00;104080.56;10545398;28;20039;-76
2021/12/18 04:16:18;;;;;;;6.13;5.40;;;;;;;7.14;100.00;104076.38;10544857;28;20052;-76
2021/12/18 04:21:18;;;;;;;9.13;6.68;;;;;;;7.18;100.00;104083.34;10545840;28;20093;-76
2021/12/18 04:26:19;;;;;;;9.18;6.88;;;;;;;7.20;100.00;104080.53;10527355;28;20452;-76
2021/12/18 04:31:19;;;;;;;8.43;6.60;;;;;;;7.20;100.00;104089.47;10544455;28;20032;-76
2021/12/18 04:36:21;;;;;;;6.63;5.53;;;;;;;7.13;100.00;104087.28;10545881;28;20032;-76
2021/12/18 04:41:36;;;;;;;7.22;5.65;;;;;;;7.06;100.00;104084.09;10546660;28;20036;-76
2021/12/18 04:46:37;;;;;;;5.95;5.38;;;;;;;7.03;100.00;104099.59;10547792;28;20032;-77
2021/12/18 04:51:37;;;;;;;9.35;7.07;;;;;;;7.01;100.00;104091.59;10554335;28;20060;-76
2021/12/18 04:56:38;;;;;;;7.53;6.68;;;;;;;6.95;100.00;104094.66;10543449;28;20036;-76
2021/12/18 05:01:39;;;;;;;20.27;8.55;;;;;;;6.95;100.00;104102.75;10525220;28;20039;-76
2021/12/18 05:06:43;;;;;;;8.57;7.50;;;;;;;6.95;100.00;104100.06;10544560;28;20090;-76
2021/12/18 05:11:43;;;;;;;34.25;9.70;;;;;;;6.88;100.00;104110.34;10526630;28;20028;-76
2021/12/18 05:16:45;;;;;;;13.65;9.45;;;;;;;6.77;100.00;104114.69;10525178;28;20430;-76
2021/12/18 05:21:45;;;;;;;11.20;7.15;;;;;;;6.60;100.00;104124.63;10524950;28;20048;-76
2021/12/18 05:26:45;;;;;;;8.15;6.40;;;;;;;6.47;100.00;104127.19;10542602;28;20124;-75
2021/12/18 05:31:46;;;;;;;8.57;6.45;;;;;;;6.46;100.00;104133.53;10542531;28;20160;-76
2021/12/18 05:41:57;;;;;;;10.90;7.20;;;;;;;6.47;100.00;104132.56;10542491;28;20071;-75
2021/12/18 05:46:57;;;;;;;12.45;7.28;;;;;;;6.47;100.00;104120.94;10542039;28;20053;-76
2021/12/18 05:51:57;;;;;;;12.07;7.30;;;;;;;6.51;100.00;104118.00;10542808;28;20157;-76
2021/12/18 05:56:58;;;;;;;10.93;7.65;;;;;;;6.45;100.00;104107.59;10541803;28;20046;-76
2021/12/18 06:01:58;;;;;;;19.33;7.82;;;;;;;6.43;100.00;104108.63;10542388;28;20040;-76
2021/12/18 06:07:06;;;;;;;15.50;8.40;;;;;;;6.43;100.00;104116.69;10540649;28;20036;-76
2021/12/18 06:12:07;;;;;;;11.18;7.68;;;;;;;6.46;100.00;104108.44;10542815;28;20086;-77
2021/12/18 06:17:07;;;;;;;13.77;8.93;;;;;;;6.55;100.00;104107.91;10523533;28;20040;-77
2021/12/18 06:22:07;;;;;;;20.58;7.85;;;;;;;6.60;100.00;104105.78;10507501;28;20043;-77
2021/12/18 06:27:08;;;;;;;14.75;8.30;;;;;;;6.67;100.00;104101.78;10543225;28;20043;-77
2021/12/18 06:32:08;;;;;;;35.35;11.20;;;;;;;6.69;100.00;104096.28;10529757;28;20028;-77
2021/12/18 06:37:09;;;;;;;53.85;12.40;;;;;;;6.70;100.00;104098.91;10505819;28;20066;-77
2021/12/18 06:42:09;;;;;;;25.67;10.27;;;;;;;6.74;100.00;104095.03;10539589;28;20060;-76
2021/12/18 06:47:09;;;;;;;15.70;10.10;;;;;;;6.77;100.00;104099.38;10540361;28;20036;-78
2021/12/18 06:52:10;;;;;;;41.60;11.80;;;;;;;6.75;100.00;104099.47;10539801;28;20032;-77
2021/12/18 06:57:10;;;;;;;22.02;10.18;;;;;;;6.62;100.00;104101.19;10522946;28;20043;-77
2021/12/18 07:02:11;;;;;;;39.95;8.55;;;;;;;6.40;100.00;104098.03;10553048;28;20036;-77
2021/12/18 07:07:11;;;;;;;9.38;6.35;;;;;;;6.36;100.00;104109.97;10557466;28;20047;-77
2021/12/18 07:12:11;;;;;;;11.27;7.25;;;;;;;6.45;100.00;104106.72;10539330;28;20039;-78
2021/12/18 07:17:12;;;;;;;27.15;8.30;;;;;;;6.39;100.00;104107.09;10552003;28;20052;-77
2021/12/18 07:22:12;;;;;;;33.15;8.65;;;;;;;6.26;100.00;104112.34;10549403;28;20031;-78
2021/12/18 07:27:13;;;;;;;28.13;8.60;;;;;;;6.28;100.00;104113.94;10547090;28;20043;-78
2021/12/18 07:32:13;;;;;;;14.15;8.10;;;;;;;6.44;100.00;104110.34;10547093;28;20035;-78
2021/12/18 07:37:13;;;;;;;14.80;7.25;;;;;;;6.50;100.00;104116.22;10529285;28;20051;-78
2021/12/18 07:42:14;;;;;;;13.45;6.80;;;;;;;6.53;100.00;104115.19;10551508;28;20032;-76
2021/12/18 07:47:14;;;;;;;30.65;8.02;;;;;;;6.56;100.00;104115.00;10513972;28;20027;-78
2021/12/18 07:52:15;;;;;;;12.20;7.07;;;;;;;6.60;100.00;104113.00;10545971;28;20103;-78
2021/12/18 07:57:15;;;;;;;7.60;5.85;;;;;;;6.56;100.00;104114.16;10545688;28;20054;-78
2021/12/18 08:02:16;;;;;;;15.20;7.63;;;;;;;6.57;100.00;104121.25;10545618;28;20528;-78
2021/12/18 08:07:16;;;;;;;17.05;8.18;;;;;;;6.47;100.00;104115.56;10546931;28;20020;-77
2021/12/18 08:12:17;;;;;;;17.30;8.13;;;;;;;6.35;100.00;104119.88;10527606;28;20413;-78
2021/12/18 08:17:17;;;;;;;19.27;7.72;;;;;;;6.35;100.00;104121.66;10546578;28;20391;-77
2021/12/18 08:22:17;;;;;;;45.03;7.78;;;;;;;6.30;100.00;104121.94;10545388;28;20161;-78
2021/12/18 08:27:18;;;;;;;7.93;5.60;;;;;;;6.32;100.00;104125.44;10545546;28;20093;-78
2021/12/18 08:32:18;;;;;;;5.22;4.72;;;;;;;6.24;100.00;104131.25;10527389;28;20111;-77
2021/12/18 08:37:20;;;;;;;15.55;5.80;;;;;;;6.24;100.00;104130.38;10510274;28;20028;-79
2021/12/18 08:42:21;;;;;;;11.55;5.25;;;;;;;6.20;100.00;104139.59;10486714;28;20476;-79
2021/12/18 08:47:21;;;;;;;19.42;7.50;;;;;;;6.21;100.00;104136.81;10544326;28;20032;-76
2021/12/18 08:52:21;;;;;;;8.75;5.65;;;;;;;6.25;100.00;104135.69;10543163;28;20031;-77
2021/12/18 08:57:22;;;;;;;10.65;6.05;;;;;;;6.17;100.00;104146.00;10543303;28;20043;-75
2021/12/18 09:02:22;;;;;;;7.18;5.22;;;;;;;6.13;100.00;104143.59;10526569;28;20024;-76
2021/12/18 09:07:25;;;;;;;25.67;6.60;;;;;;;6.08;100.00;104145.69;10526518;28;20031;-76
2021/12/18 09:12:26;;;;;;;9.25;6.47;;;;;;;5.79;100.00;104145.47;10526060;28;20036;-75
2021/12/18 09:17:26;;;;;;;29.00;6.63;;;;;;;5.89;100.00;104145.84;10528406;28;20100;-75
2021/12/18 09:22:26;;;;;;;6.35;4.35;;;;;;;5.90;100.00;104140.34;10552548;28;20044;-75
2021/12/18 09:27:27;;;;;;;20.27;4.70;;;;;;;5.89;100.00;104140.44;10542326;28;20040;-75
2021/12/18 09:32:29;;;;;;;7.78;4.22;;;;;;;5.94;100.00;104128.50;10522589;28;20055;-75
2021/12/18 09:37:29;;;;;;;56.33;8.75;;;;;;;6.16;100.00;104129.94;10524705;28;20165;-75
2021/12/18 09:42:30;;;;;;;11.80;5.18;;;;;;;6.32;100.00;104127.22;10541275;28;20085;-75
2021/12/18 09:47:30;;;;;;;10.50;5.22;;;;;;;6.37;100.00;104150.22;10506661;28;20035;-75
2021/12/18 09:52:31;;;;;;;21.80;7.10;;;;;;;6.27;100.00;104122.13;10507084;28;20062;-76
2021/12/18 09:57:32;;;;;;;27.85;6.43;;;;;;;6.39;100.00;104120.53;10523842;28;20067;-76
2021/12/18 10:02:32;;;;;;;25.88;6.80;;;;;;;6.49;100.00;104113.66;10524814;28;20035;-75
2021/12/18 10:07:33;;;;;;;45.90;7.68;;;;;;;6.58;100.00;104104.16;10542842;28;20043;-76
2021/12/18 10:12:33;;;;;;;14.88;5.85;;;;;;;6.64;100.00;104104.66;10506034;28;20028;-76
2021/12/18 10:17:35;;;;;;;14.82;5.78;;;;;;;6.67;100.00;104101.78;10541520;28;20135;-75
2021/12/18 10:22:47;;;;;;;48.20;8.07;;;;;;;6.68;100.00;104110.72;10506758;28;20047;-74
2021/12/18 10:28:11;;;;;;;13.88;5.15;;;;;;;6.70;100.00;104108.78;10542071;28;20032;-78
2021/12/18 10:33:14;;;;;;;12.63;5.28;;;;;;;6.74;100.00;104115.72;10523560;28;20028;-76
2021/12/18 10:38:48;;;;;;;9.00;5.97;;;;;;;6.73;100.00;104116.66;10524823;28;20032;-74
2021/12/18 10:44:08;;;;;;;8.50;6.53;;;;;;;6.69;100.00;104124.06;10528145;28;20379;-74
2021/12/18 10:49:10;;;;;;;25.70;7.05;;;;;;;6.72;100.00;104113.13;10515634;28;20031;-74
2021/12/18 10:54:18;;;;;;;8.75;6.15;;;;;;;6.79;100.00;104110.06;10549595;28;20024;-74
2021/12/18 10:59:21;;;;;;;33.67;8.85;;;;;;;6.79;100.00;104101.97;10529913;28;20082;-74
2021/12/18 11:04:23;;;;;;;14.95;6.10;;;;;;;6.75;100.00;104110.25;10530128;28;20360;-75
2021/12/18 11:09:30;;;;;;;7.80;5.88;;;;;;;6.79;100.00;104104.66;10548330;28;20036;-74
2021/12/18 11:14:31;;;;;;;21.73;6.70;;;;;;;6.82;100.00;104107.16;10529521;28;20379;-73
2021/12/18 11:19:32;;;;;;;9.60;5.40;;;;;;;6.89;100.00;104095.94;10528900;28;20056;-74
2021/12/18 11:24:36;;;;;;;6.40;3.88;;;;;;;6.91;100.00;104093.13;10531233;28;20139;-78
2021/12/18 11:29:44;;;;;;;17.80;5.05;;;;;;;6.87;100.00;104091.59;10552639;28;20028;-78
2021/12/18 11:34:45;;;;;;;23.23;6.15;;;;;;;6.79;100.00;104086.66;10538511;28;20028;-75
2021/12/18 11:39:47;;;;;;;8.55;4.18;;;;;;;6.82;100.00;104082.94;10514329;28;20123;-77
2021/12/18 11:44:57;;;;;;;18.52;5.13;;;;;;;6.78;100.00;104079.56;10511545;28;20430;-76
2021/12/18 11:50:24;;;;;;;6.65;4.20;;;;;;;6.80;100.00;104083.03;10546021;28;20096;-76
2021/12/18 11:55:25;;;;;;;;;;;;;;;6.87;100.00;104067.34;10535062;28;20454;-75
2021/12/18 12:00:50;;;;;;;6.57;3.88;;;;;;;6.83;100.00;104068.50;10545696;28;19926;-76
2021/12/18 12:05:50;;;;;;;5.30;4.55;;;;;;;6.85;100.00;104067.44;10440021;28;21360;-74
2021/12/18 12:11:17;;;;;;;4.38;3.97;;;;;;;6.80;100.00;104064.19;10482755;28;20388;-77
2021/12/18 12:16:17;;;;;;;17.83;4.00;;;;;;;6.74;100.00;104056.47;10545652;28;20052;-74
2021/12/18 12:21:41;;;;;;;12.05;6.53;;;;;;;6.66;100.00;104045.31;10510413;28;20039;-78
2021/12/18 12:26:41;;;;;;;14.80;6.53;;;;;;;6.48;100.00;104037.41;10546003;28;20123;-74
2021/12/18 12:31:59;;;;;;;17.92;6.68;;;;;;;6.62;100.00;104039.25;10545154;28;20150;-73
2021/12/18 12:37:34;;;;;;;12.60;7.38;;;;;;;6.75;100.00;104029.44;10526725;28;20028;-74
2021/12/18 12:42:35;;;;;;;14.43;7.30;;;;;;;6.75;100.00;104017.81;10544555;28;20039;-73
2021/12/18 12:47:36;;;;;;;6.50;5.03;;;;;;;6.78;100.00;104016.75;10544067;28;20043;-75
2021/12/18 12:52:55;;;;;;;9.32;5.88;;;;;;;6.66;100.00;104011.16;10526563;28;20035;-74
2021/12/18 12:58:00;;;;;;;15.50;6.05;;;;;;;6.70;100.00;104010.03;10526166;28;20063;-74
2021/12/18 13:03:13;;;;;;;10.48;6.63;;;;;;;6.77;100.00;103996.19;10526641;28;20143;-72
2021/12/18 13:08:13;;;;;;;9.23;5.60;;;;;;;6.76;100.00;104003.34;10544765;28;20068;-74
2021/12/18 13:13:18;;;;;;;8.00;5.47;;;;;;;6.82;100.00;104004.81;10524683;28;20028;-74
2021/12/18 13:18:20;;;;;;;9.07;6.35;;;;;;;6.80;100.00;103993.28;10526147;28;20044;-73
2021/12/18 13:23:21;;;;;;;11.15;6.47;;;;;;;6.81;100.00;103995.88;10544047;28;20040;-74
2021/12/18 13:28:27;;;;;;;7.13;5.97;;;;;;;6.59;100.00;103999.03;10620201;27;1263619;-74
2021/12/18 13:33:29;;;;;;;7.70;6.78;;;;;;;6.35;100.00;103992.47;10618906;28;20055;-74
2021/12/18 13:38:40;;;;;;;5.25;4.55;;;;;;;6.38;100.00;103997.66;10617551;28;20157;-74
2021/12/18 13:43:41;;;;;;;6.00;5.32;;;;;;;6.44;100.00;103987.38;10618315;27;20027;-74
2021/12/18 13:48:43;;;;;;;21.67;5.35;;;;;;;6.50;100.00;103978.94;10618719;28;20505;-75
2021/12/18 13:53:58;;;;;;;8.48;5.30;;;;;;;6.45;100.00;103978.38;10586294;27;20036;-74
2021/12/18 13:58:58;;;;;;;7.22;5.60;;;;;;;6.35;100.00;103982.59;10574260;28;20032;-74
2021/12/18 14:04:02;;;;;;;9.82;5.70;;;;;;;6.43;100.00;103972.19;10574727;28;20027;-74
2021/12/18 14:09:22;;;;;;;6.00;4.63;;;;;;;6.51;100.00;103969.06;10594170;27;20057;-76
2021/12/18 14:14:42;;;;;;;6.70;4.22;;;;;;;6.42;100.00;103972.31;10598046;27;20039;-73
2021/12/18 14:19:47;;;;;;;5.10;4.70;;;;;;;6.29;100.00;103977.59;10573233;28;20040;-74
2021/12/18 14:25:11;;;;;;;5.15;4.45;;;;;;;6.24;100.00;103963.53;10607541;28;20051;-75
2021/12/18 14:30:26;;;;;;;6.45;5.05;;;;;;;6.21;100.00;103977.16;10617775;27;20045;-77
2021/12/18 14:35:26;;;;;;;7.50;5.80;;;;;;;6.13;100.00;103974.97;10611925;28;20097;-76
2021/12/18 14:40:29;;;;;;;8.98;5.80;;;;;;;6.08;100.00;103974.34;10566026;28;20121;-77
2021/12/18 14:45:31;;;;;;;7.20;4.38;;;;;;;6.01;100.00;103970.31;10544499;28;20391;-75
2021/12/18 14:50:35;;;;;;;8.20;5.72;;;;;;;5.96;100.00;103972.41;10544862;28;20032;-74
2021/12/18 14:55:44;;;;;;;11.50;8.38;;;;;;;6.00;100.00;103973.97;10546435;28;20050;-77
2021/12/18 15:00:55;;;;;;;7.57;5.72;;;;;;;6.06;100.00;103965.50;10543716;28;20131;-76
2021/12/18 15:06:01;;;;;;;8.88;6.40;;;;;;;6.13;100.00;103974.09;10544085;28;20060;-75
2021/12/18 15:11:08;;;;;;;8.53;6.53;;;;;;;6.01;100.00;103970.31;10541351;28;20119;-76
2021/12/18 15:16:23;;;;;;;9.98;7.78;;;;;;;5.89;100.00;103979.94;10578234;28;20031;-77
2021/12/18 15:21:24;;;;;;;11.48;6.70;;;;;;;6.01;100.00;103989.13;10585219;28;20470;-74
2021/12/18 15:26:24;;;;;;;7.90;7.10;;;;;;;6.02;100.00;103991.72;10585282;28;20099;-75
2021/12/18 15:31:25;;;;;;;9.60;8.30;;;;;;;6.00;100.00;103988.28;10581444;28;20383;-73
2021/12/18 15:36:26;;;;;;;14.18;9.02;;;;;;;6.10;100.00;103990.44;10543420;28;20036;-74
2021/12/18 15:41:27;;;;;;;10.77;8.98;;;;;;;6.02;100.00;103985.47;10526815;28;20067;-73
2021/12/18 15:46:27;;;;;;;12.43;9.60;;;;;;;6.04;100.00;103978.19;10583404;27;20032;-73
2021/12/18 15:51:28;;;;;;;16.30;11.05;;;;;;;6.11;100.00;103976.88;10540333;28;20040;-73
2021/12/18 15:56:29;;;;;;;17.35;10.95;;;;;;;6.05;100.00;103972.72;10542258;28;20028;-73
2021/12/18 16:01:30;;;;;;;12.43;10.40;;;;;;;6.06;100.00;103978.94;10542115;28;20062;-74
2021/12/18 16:06:30;;;;;;;14.95;10.52;;;;;;;6.06;100.00;103973.56;10545661;28;20162;-74
2021/12/18 16:11:31;;;;;;;18.13;13.55;;;;;;;6.08;100.00;103978.88;10543636;28;20101;-74
2021/12/18 16:16:31;;;;;;;17.10;13.20;;;;;;;6.08;100.00;103971.66;10542114;28;20658;-73
2021/12/18 16:21:32;;;;;;;21.00;14.02;;;;;;;6.05;100.00;103972.72;10541723;28;20409;-73
2021/12/18 16:26:32;;;;;;;21.35;14.63;;;;;;;6.09;100.00;103970.69;10539794;28;20044;-74
2021/12/18 16:31:33;;;;;;;24.40;15.50;;;;;;;6.18;100.00;103971.97;10539478;28;20044;-73
2021/12/18 16:36:35;;;;;;;27.55;17.00;;;;;;;6.21;100.00;103967.25;10539203;28;20051;-74
2021/12/18 16:41:35;;;;;;;32.55;16.70;;;;;;;6.10;100.00;103972.44;10539166;28;20110;-74
2021/12/18 16:46:36;;;;;;;28.70;17.15;;;;;;;6.00;100.00;103976.66;10522318;28;20031;-73
2021/12/18 16:51:36;;;;;;;33.10;20.02;;;;;;;5.97;100.00;103976.84;10522345;28;20047;-75
2021/12/18 16:56:36;;;;;;;35.03;22.98;;;;;;;6.04;100.00;103973.69;10540140;28;20036;-74
2021/12/18 17:01:37;;;;;;;30.20;20.95;;;;;;;6.10;100.00;103960.81;10539596;28;20067;-74
2021/12/18 17:06:37;;;;;;;36.55;22.90;;;;;;;6.13;100.00;103964.19;10521878;28;20039;-74
2021/12/18 17:11:37;;;;;;;34.35;20.92;;;;;;;6.17;100.00;103964.88;10539528;28;20462;-73
2021/12/18 17:16:38;;;;;;;34.13;21.85;;;;;;;6.20;100.00;103965.53;10539774;28;20081;-73
2021/12/18 17:21:38;;;;;;;34.47;22.20;;;;;;;6.30;100.00;103963.16;10539802;28;20102;-74
2021/12/18 17:26:39;;;;;;;35.67;22.65;;;;;;;6.36;100.00;103961.91;10538665;28;20117;-74
2021/12/18 17:31:39;;;;;;;43.13;24.63;;;;;;;6.40;100.00;103961.63;10538639;28;20555;-74
2021/12/18 17:36:39;;;;;;;43.83;26.63;;;;;;;6.37;100.00;103963.63;10537693;28;20479;-73
2021/12/18 17:41:40;;;;;;;53.88;24.92;;;;;;;6.38;100.00;103951.91;10537410;28;20059;-74
2021/12/18 17:46:40;;;;;;;51.83;27.60;;;;;;;6.36;100.00;103946.63;10537661;28;20033;-74
2021/12/18 17:51:41;;;;;;;47.05;28.48;;;;;;;6.37;100.00;103956.44;10520792;28;20036;-73
2021/12/18 17:56:41;;;;;;;49.22;26.73;;;;;;;6.41;100.00;103954.41;10539014;28;20039;-73
2021/12/18 18:01:42;;;;;;;43.13;26.48;;;;;;;6.42;100.00;103954.31;10538706;28;20036;-73
2021/12/18 18:06:42;;;;;;;49.40;27.73;;;;;;;6.52;100.00;103963.56;10537502;28;20116;-73
2021/12/18 18:11:42;;;;;;;45.20;27.58;;;;;;;6.54;100.00;103960.78;10540467;28;20055;-74
2021/12/18 18:16:43;;;;;;;62.45;30.95;;;;;;;6.53;100.00;103962.59;10546671;28;20490;-74
2021/12/18 18:21:43;;;;;;;49.78;26.45;;;;;;;6.56;100.00;103953.47;10528554;28;20078;-74
2021/12/18 18:26:45;;;;;;;42.03;23.35;;;;;;;6.57;100.00;103962.41;10550028;28;20056;-73
2021/12/18 18:31:45;;;;;;;28.83;18.08;;;;;;;6.51;100.00;103969.91;10546380;28;20047;-73
2021/12/18 18:36:46;;;;;;;37.55;17.08;;;;;;;6.39;100.00;103957.22;10544292;28;20372;-74
2021/12/18 18:41:46;;;;;;;42.72;17.48;;;;;;;6.14;100.00;103960.53;10544768;28;20040;-74
2021/12/18 18:46:49;;;;;;;31.70;18.27;;;;;;;6.05;100.00;103967.31;10543648;28;20039;-73
2021/12/18 18:51:49;;;;;;;28.38;17.27;;;;;;;6.06;100.00;103954.75;10545393;28;20032;-73
2021/12/18 18:56:50;;;;;;;27.40;15.48;;;;;;;6.10;100.00;103942.00;10544964;28;20043;-73
2021/12/18 19:01:50;;;;;;;37.30;19.25;;;;;;;6.17;100.00;103936.13;10544651;28;20036;-74
2021/12/18 19:06:51;;;;;;;33.45;17.02;;;;;;;6.26;100.00;103940.94;10543048;28;20074;-73
2021/12/18 19:11:51;;;;;;;40.65;21.15;;;;;;;6.33;100.00;103930.66;10543999;28;20040;-74
2021/12/18 19:16:52;;;;;;;39.10;19.10;;;;;;;6.44;100.00;103935.38;10544096;28;20085;-73
2021/12/18 19:21:52;;;;;;;45.17;20.65;;;;;;;6.44;100.00;103941.63;10543819;28;20070;-75
2021/12/18 19:26:53;;;;;;;48.17;20.67;;;;;;;6.49;100.00;103935.97;10543454;28;20058;-74
2021/12/18 19:31:53;;;;;;;44.35;21.30;;;;;;;6.55;100.00;103935.59;10543886;28;20044;-74
2021/12/18 19:36:54;;;;;;;47.20;22.67;;;;;;;6.56;100.00;103921.16;10525033;28;20483;-74
2021/12/18 19:41:54;;;;;;;39.55;19.95;;;;;;;6.55;100.00;103930.19;10543015;28;20055;-73
2021/12/18 19:46:55;;;;;;;28.58;17.40;;;;;;;6.53;100.00;103918.66;10543125;28;20081;-74
2021/12/18 19:51:55;;;;;;;32.35;15.40;;;;;;;6.50;100.00;103925.09;10542493;28;20040;-73
2021/12/18 19:56:55;;;;;;;33.65;16.88;;;;;;;6.51;100.00;103913.38;10540893;28;20056;-73
2021/12/18 20:02:01;;;;;;;25.13;14.73;;;;;;;6.57;100.00;103920.16;10524418;28;20123;-73
2021/12/18 20:07:07;;;;;;;27.38;14.32;;;;;;;6.53;100.00;103913.25;10540836;28;20028;-74
2021/12/18 20:12:08;;;;;;;31.50;18.63;;;;;;;6.54;100.00;103906.94;10540109;28;20486;-74
2021/12/18 20:17:08;;;;;;;30.08;16.08;;;;;;;6.56;100.00;103918.44;10540433;28;20107;-73
2021/12/18 20:22:09;;;;;;;35.13;19.20;;;;;;;6.57;100.00;103906.72;10505549;28;20036;-74
2021/12/18 20:27:11;;;;;;;33.40;17.95;;;;;;;6.58;100.00;103904.91;10540848;28;20051;-74
2021/12/18 20:32:11;;;;;;;31.45;16.10;;;;;;;6.58;100.00;103896.84;10541093;28;20039;-73
2021/12/18 20:37:12;;;;;;;31.40;19.27;;;;;;;6.59;100.00;103902.09;10540770;28;20490;-73
2021/12/18 20:42:12;;;;;;;39.25;19.45;;;;;;;6.58;100.00;103895.00;10541960;28;20036;-74
2021/12/18 20:47:13;;;;;;;35.30;20.70;;;;;;;6.60;100.00;103901.13;10539625;28;20031;-74
2021/12/18 20:52:13;;;;;;;38.63;19.63;;;;;;;6.60;100.00;103894.88;10539393;28;20475;-74
2021/12/18 20:57:13;;;;;;;46.58;20.08;;;;;;;6.63;100.00;103900.94;10539716;28;20051;-74
2021/12/18 21:02:14;;;;;;;38.08;20.25;;;;;;;6.63;100.00;103895.56;10540345;28;20032;-74
2021/12/18 21:07:19;;;;;;;32.80;20.42;;;;;;;6.63;100.00;103895.56;10540186;28;20579;-74
2021/12/18 21:12:19;;;;;;;24.25;16.13;;;;;;;6.64;100.00;103907.22;10538416;28;20085;-73
2021/12/18 21:17:19;;;;;;;29.23;14.55;;;;;;;6.63;100.00;103911.72;10539700;28;20040;-74
2021/12/18 21:22:20;;;;;;;28.13;17.33;;;;;;;6.59;100.00;103895.84;10538260;28;20055;-74
2021/12/18 21:27:23;;;;;;;30.48;15.55;;;;;;;6.59;100.00;103890.47;10539114;28;20059;-73
2021/12/18 21:32:23;;;;;;;26.48;17.75;;;;;;;6.56;100.00;103887.97;10539199;28;20076;-74
2021/12/18 21:37:24;;;;;;;46.10;18.20;;;;;;;6.56;100.00;103883.44;10539260;28;20028;-74
2021/12/18 21:42:24;;;;;;;37.55;17.05;;;;;;;6.55;100.00;103895.19;10538738;28;20462;-74
2021/12/18 21:47:25;;;;;;;30.95;15.02;;;;;;;6.52;100.00;103884.63;10541282;28;20032;-74
2021/12/18 21:52:27;;;;;;;25.15;15.30;;;;;;;6.48;100.00;103888.47;10548135;28;20032;-73
2021/12/18 21:57:27;;;;;;;39.70;18.20;;;;;;;6.48;100.00;103896.56;10547176;28;20085;-74
2021/12/18 22:02:28;;;;;;;30.70;20.08;;;;;;;6.49;100.00;103890.19;10547018;28;20066;-74
2021/12/18 22:07:29;;;;;;;31.58;18.17;;;;;;;6.46;100.00;103882.31;10547372;28;20127;-72
2021/12/18 22:12:29;;;;;;;45.40;19.30;;;;;;;6.45;100.00;103891.38;10546048;28;20044;-74
2021/12/18 22:17:30;;;;;;;35.63;18.58;;;;;;;6.42;100.00;103889.72;10546618;28;20036;-74
2021/12/18 22:22:30;;;;;;;29.83;18.27;;;;;;;6.38;100.00;103881.91;10545379;28;20036;-75
2021/12/18 22:27:31;;;;;;;29.45;16.17;;;;;;;6.38;100.00;103874.75;10544942;28;20118;-74
2021/12/18 22:32:31;;;;;;;35.15;15.88;;;;;;;6.34;100.00;103870.47;10546166;28;20035;-73
2021/12/18 22:37:32;;;;;;;29.40;14.68;;;;;;;6.28;100.00;103868.19;10546449;28;20032;-74
2021/12/18 22:42:32;;;;;;;26.25;13.88;;;;;;;6.25;100.00;103866.56;10545381;28;20128;-75
2021/12/18 22:47:32;;;;;;;18.05;13.07;;;;;;;6.25;100.00;103871.94;10544415;28;20039;-74
2021/12/18 22:52:33;;;;;;;9.48;7.70;;;;;;;6.22;100.00;103861.38;10544905;28;20071;-74
2021/12/18 22:57:33;;;;;;;15.60;8.75;;;;;;;6.17;100.00;103857.25;10547670;28;20036;-74
2021/12/18 23:02:34;;;;;;;13.52;9.05;;;;;;;6.15;100.00;103854.63;10545568;28;20157;-74
2021/12/18 23:07:35;;;;;;;9.82;8.20;;;;;;;6.10;100.00;103856.75;10544805;28;20035;-73
2021/12/18 23:12:40;;;;;;;7.80;6.57;;;;;;;6.12;100.00;103860.19;10542543;28;20050;-74
2021/12/18 23:18:04;;;;;;;7.95;7.05;;;;;;;6.08;100.00;103850.59;10527179;28;20059;-73
2021/12/18 23:23:01;;;;;;;9.20;6.90;;;;;;;6.09;100.00;103856.84;10289444;28;20045;-75
2021/12/18 23:28:02;;;;;;;13.50;6.38;;;;;;;6.09;100.00;103846.06;10419223;28;20085;-75
2021/12/18 23:33:06;;;;;;;6.90;6.30;;;;;;;6.05;100.00;103848.09;10419034;28;20045;-75
2021/12/18 23:38:06;;;;;;;12.73;7.25;;;;;;;6.03;100.00;103847.31;10418627;28;20037;-75
2021/12/18 23:48:22;;;;;;;6.25;5.45;;;;;;;6.00;100.00;103834.09;10432313;28;20037;-76